Briefing drone pour Mirebeau-sur-beze

Rechercher une autre localisation

Conditions de vol :


Nous sommes le : Lundi 26 février 2024
Il est 11:32 UTC (12:32 LT)

Lever de soleil : 05:58 UTC (06:58 LT)
Coucher de soleil : 17:44 UTC (18:44 LT)

Météo

L'essentiel des conditions de vol

VIGILANCE MÉTÉO FRANCE - Côte-dOr (21)
Pas de vigilances particulieres
CARTES DES FRONTS
METAR de LFSD
LFSD 261130Z AUTO 19008KT 160V230 9999 FEW023 OVC056 12/07 Q0997

Date d'émission: 26/02/2024
Heure d'émission: 11:30 UTC
Vent: 190° (variable du 160° au 230°) pour 8 KT (15 km/h)
Visibilité horizontale: > 10 km
Plafond :
- Peu de nuages à 2300ft (701m)
- Couvert à 5600ft (1707m)
Température: 12 °C
Point de rosée: 7 °C
Humidité: 71%
Pression (QNH): 997 hPa
TAF de LFSD
LFSD 010600Z 0100/0124 CNL

Conditions prévues :

Heure d'émission : Bulletin éffectué le 01 à 00:00 UTC
Prévision : Valide du 01 a 00:00 UTC au 01 a 23:59 UTC
Nuages : à 0ft (0 m)
WEBCAM POUR MIREBEAU-SUR-BEZE

Réglementation

Voler en sécurité

CARTES AERONAUTIQUE 1/500.000
CARTE AZBA (Reseau basse altitude)
CARTES VAC (LFSD)
SUP AIP




Chargement des AIP...
NOTAM (MIREBEAU-SUR-BEZE + Terrain à proximité / FIR )




Chargement des NOTAMS...
CONTACT PREFECTURE 21
Côte-dOr (21) : [email protected]


Avertissement : Les données mises à disposition sont indicatives. Oxygène Drone ne pourra être tenu responsable de dégâts causés aux biens et aux personnes.